Time;durP1;ratioP1;P1;durP2;ratioP2;P2;SDS_P1;SDS_P2;PMS_P1;PMS_P2;Temp;Humidity;BMP_temperature;BMP_pressure;BME280_temperature;BME280_humidity;BME280_pressure;Samples;Min_cycle;Max_cycle;Signal;HPM_P1;HPM_P2
2022/05/07 00:00:26;;;;;;;4.57;2.28;;;10.40;99.90;;;;;;5055936;28;20016;-63
2022/05/07 00:02:52;;;;;;;3.42;2.45;;;10.50;99.90;;;;;;5055665;28;20027;-63
2022/05/07 00:05:19;;;;;;;5.78;2.40;;;10.50;99.90;;;;;;5055598;28;20410;-63
2022/05/07 00:07:45;;;;;;;6.63;2.58;;;10.50;99.90;;;;;;5055557;28;20115;-63
2022/05/07 00:10:11;;;;;;;5.28;2.65;;;10.50;99.90;;;;;;5073489;28;20078;-63
2022/05/07 00:12:36;;;;;;;6.72;2.65;;;10.50;99.90;;;;;;5073713;28;20029;-63
2022/05/07 00:15:02;;;;;;;7.50;2.67;;;10.40;99.90;;;;;;5056364;28;20024;-63
2022/05/07 00:20:12;;;;;;;4.40;2.70;;;10.30;99.90;;;;;;5073435;28;20074;-63
2022/05/07 00:22:37;;;;;;;3.90;2.58;;;10.30;99.90;;;;;;5055747;28;20021;-63
2022/05/07 00:25:03;;;;;;;5.32;2.75;;;10.30;99.90;;;;;;5073610;28;20029;-63
2022/05/07 00:27:29;;;;;;;6.75;2.70;;;10.30;99.90;;;;;;5056051;28;20028;-63
2022/05/07 00:29:54;;;;;;;5.43;2.53;;;10.30;99.90;;;;;;5055397;28;20470;-63
2022/05/07 00:32:20;;;;;;;3.40;2.33;;;10.30;99.90;;;;;;5055198;28;20096;-63
2022/05/07 00:34:46;;;;;;;3.88;2.17;;;10.30;99.90;;;;;;5073187;28;20036;-63
2022/05/07 00:37:11;;;;;;;7.65;2.85;;;10.30;99.90;;;;;;5055029;28;20024;-63
2022/05/07 00:39:37;;;;;;;7.18;2.25;;;10.40;99.90;;;;;;5054879;28;20039;-63
2022/05/07 00:42:06;;;;;;;6.20;2.33;;;10.50;99.90;;;;;;5073289;28;20054;-63
2022/05/07 00:44:33;;;;;;;4.97;2.65;;;10.40;99.90;;;;;;5055115;28;20052;-63
2022/05/07 00:47:24;;;;;;;8.52;2.92;;;10.40;99.90;;;;;;5055372;28;20024;-63
2022/05/07 00:49:51;;;;;;;4.55;2.60;;;10.30;99.90;;;;;;5072955;28;20082;-63
2022/05/07 00:52:20;;;;;;;8.48;2.47;;;10.20;99.90;;;;;;5054933;28;20028;-63
2022/05/07 00:54:47;;;;;;;3.67;2.30;;;10.20;99.90;;;;;;5072937;28;20025;-63
2022/05/07 00:57:13;;;;;;;5.53;2.72;;;10.10;99.90;;;;;;5072850;28;20071;-63
2022/05/07 00:59:40;;;;;;;4.20;2.40;;;10.00;99.90;;;;;;5072936;28;20026;-63
2022/05/07 01:02:06;;;;;;;3.50;2.22;;;9.90;99.90;;;;;;5072899;28;20506;-63
2022/05/07 01:04:31;;;;;;;6.72;2.33;;;9.90;99.90;;;;;;5055304;28;20029;-63
2022/05/07 01:06:57;;;;;;;4.07;2.53;;;9.90;99.90;;;;;;5073092;28;20031;-63
2022/05/07 01:09:24;;;;;;;3.92;2.35;;;9.90;99.90;;;;;;5054665;28;20032;-63
2022/05/07 01:11:51;;;;;;;5.57;2.83;;;9.80;99.90;;;;;;5054738;28;20032;-63
2022/05/07 01:14:16;;;;;;;5.55;2.20;;;9.80;99.90;;;;;;5054753;28;20104;-63
2022/05/07 01:16:42;;;;;;;5.65;2.80;;;9.70;99.90;;;;;;5054736;28;20183;-63
2022/05/07 01:19:08;;;;;;;4.43;2.70;;;9.70;99.90;;;;;;5072801;28;20046;-63
2022/05/07 01:21:33;;;;;;;5.22;2.92;;;9.70;99.90;;;;;;5072640;28;20023;-63
2022/05/07 01:23:59;;;;;;;4.40;2.42;;;9.70;99.90;;;;;;5072617;28;20471;-63
2022/05/07 01:26:26;;;;;;;3.58;2.30;;;9.60;99.90;;;;;;5054514;28;20142;-63
2022/05/07 01:28:59;;;;;;;4.03;2.20;;;9.60;99.90;;;;;;5072668;28;20097;-63
2022/05/07 01:31:26;;;;;;;3.08;1.80;;;9.50;99.90;;;;;;5054696;28;20032;-63
2022/05/07 01:33:53;;;;;;;7.13;2.38;;;9.50;99.90;;;;;;5055645;28;20108;-63
2022/05/07 01:36:19;;;;;;;3.35;2.22;;;9.40;99.90;;;;;;5072376;28;20048;-63
2022/05/07 01:38:45;;;;;;;5.28;2.67;;;9.40;99.90;;;;;;5072267;28;20386;-63
2022/05/07 01:41:11;;;;;;;3.60;2.15;;;9.40;99.90;;;;;;5072659;28;20100;-63
2022/05/07 01:43:36;;;;;;;6.95;2.60;;;9.40;99.90;;;;;;5072401;28;20475;-63
2022/05/07 01:46:03;;;;;;;3.95;2.35;;;9.40;99.90;;;;;;5072398;28;20194;-63
2022/05/07 01:48:29;;;;;;;4.65;2.45;;;9.30;99.90;;;;;;5072265;28;20066;-63
2022/05/07 01:50:55;;;;;;;3.53;2.33;;;9.20;99.90;;;;;;5072295;28;20070;-63
2022/05/07 01:53:22;;;;;;;4.07;2.53;;;9.20;99.90;;;;;;5054372;28;20029;-63
2022/05/07 01:55:48;;;;;;;8.85;2.80;;;9.20;99.90;;;;;;5054295;28;20048;-63
2022/05/07 01:58:14;;;;;;;4.25;2.35;;;9.20;99.90;;;;;;5072328;28;20052;-63
2022/05/07 02:00:42;;;;;;;3.55;2.35;;;9.10;99.90;;;;;;5072221;28;20056;-63
2022/05/07 02:03:08;;;;;;;5.60;2.35;;;9.10;99.90;;;;;;5073743;28;20100;-63
2022/05/07 02:05:35;;;;;;;4.25;2.22;;;9.10;99.90;;;;;;5076110;28;20016;-63
2022/05/07 02:08:02;;;;;;;3.53;2.20;;;9.10;99.90;;;;;;5075847;28;20099;-63
2022/05/07 02:10:28;;;;;;;3.80;2.63;;;9.20;99.90;;;;;;5075854;28;20027;-63
2022/05/07 02:12:54;;;;;;;5.57;2.72;;;9.20;99.90;;;;;;5058107;28;20032;-63
2022/05/07 02:15:20;;;;;;;6.80;3.00;;;9.20;99.90;;;;;;5075676;28;20070;-63
2022/05/07 02:17:45;;;;;;;5.07;2.90;;;9.20;99.90;;;;;;5075530;28;20024;-63
2022/05/07 02:20:11;;;;;;;5.97;2.67;;;9.10;99.90;;;;;;5058093;28;20016;-63
2022/05/07 02:22:37;;;;;;;6.47;2.60;;;9.10;99.90;;;;;;5057554;28;20074;-63
2022/05/07 02:25:04;;;;;;;6.35;3.05;;;9.10;99.90;;;;;;5057656;28;20029;-63
2022/05/07 02:27:30;;;;;;;4.88;3.40;;;9.10;99.90;;;;;;5057624;28;20028;-63
2022/05/07 02:29:56;;;;;;;4.63;2.33;;;9.00;99.90;;;;;;5075436;28;20034;-63
2022/05/07 02:32:21;;;;;;;8.93;2.70;;;8.90;99.90;;;;;;5057442;28;20064;-63
2022/05/07 02:34:47;;;;;;;3.28;2.55;;;8.80;99.90;;;;;;5075429;28;20028;-63
2022/05/07 02:37:13;;;;;;;3.90;2.72;;;8.70;99.90;;;;;;5075225;28;20134;-63
2022/05/07 02:39:38;;;;;;;3.00;2.53;;;8.80;99.90;;;;;;5057384;28;20044;-63
2022/05/07 02:44:50;;;;;;;4.63;2.72;;;8.80;99.90;;;;;;5075724;28;20031;-63
2022/05/07 02:47:15;;;;;;;5.85;2.70;;;8.70;99.90;;;;;;5057315;28;20052;-63
2022/05/07 02:49:41;;;;;;;4.70;2.50;;;8.70;99.90;;;;;;5057137;28;20082;-62
2022/05/07 02:52:07;;;;;;;4.15;2.38;;;8.60;99.90;;;;;;5075111;28;20495;-63
2022/05/07 02:54:33;;;;;;;5.85;2.95;;;8.70;99.90;;;;;;5057257;28;20028;-63
2022/05/07 02:56:58;;;;;;;4.35;2.33;;;8.70;99.90;;;;;;5074848;28;20111;-63
2022/05/07 02:59:24;;;;;;;3.75;2.17;;;8.70;99.90;;;;;;5074906;28;20099;-63
2022/05/07 03:01:50;;;;;;;5.90;2.92;;;8.80;99.90;;;;;;5074963;28;20016;-63
2022/05/07 03:04:16;;;;;;;4.93;2.67;;;8.70;99.90;;;;;;5074803;28;20475;-63
2022/05/07 03:06:41;;;;;;;4.22;2.50;;;8.70;99.90;;;;;;5056758;28;20020;-63
2022/05/07 03:09:07;;;;;;;5.95;2.53;;;8.70;99.90;;;;;;5056998;28;20027;-63
2022/05/07 03:11:34;;;;;;;3.60;2.20;;;8.70;99.90;;;;;;5056736;28;20135;-63
2022/05/07 03:14:03;;;;;;;3.30;2.10;;;8.80;99.90;;;;;;5073861;28;20050;-63
2022/05/07 03:16:30;;;;;;;5.22;2.50;;;8.70;99.90;;;;;;5056228;28;20052;-63
2022/05/07 03:18:55;;;;;;;4.57;2.50;;;8.60;99.90;;;;;;5056534;28;20115;-63
2022/05/07 03:21:21;;;;;;;5.93;2.95;;;8.70;99.90;;;;;;5056525;28;20056;-63
2022/05/07 03:23:47;;;;;;;3.53;2.28;;;8.70;99.90;;;;;;5056507;28;20021;-63
2022/05/07 03:26:13;;;;;;;4.25;2.70;;;8.70;99.90;;;;;;5074282;28;20028;-63
2022/05/07 03:28:39;;;;;;;4.43;2.47;;;8.60;99.90;;;;;;5074194;28;20107;-63
2022/05/07 03:31:06;;;;;;;3.75;2.55;;;8.50;99.90;;;;;;5074225;28;20055;-63
2022/05/07 03:33:31;;;;;;;3.72;2.30;;;8.50;99.90;;;;;;5074099;28;20024;-63
2022/05/07 03:35:57;;;;;;;4.88;2.60;;;8.40;99.90;;;;;;5074091;28;20096;-63
2022/05/07 03:38:23;;;;;;;13.95;2.78;;;8.30;99.90;;;;;;5055977;28;20371;-63
2022/05/07 03:40:49;;;;;;;5.68;2.70;;;8.40;99.90;;;;;;5074280;28;20032;-63
2022/05/07 03:43:15;;;;;;;4.25;2.47;;;8.40;99.90;;;;;;5056033;28;20028;-63
2022/05/07 03:45:40;;;;;;;7.00;2.60;;;8.30;99.90;;;;;;5056092;28;20020;-63
2022/05/07 03:48:07;;;;;;;4.57;2.72;;;8.30;99.90;;;;;;5074223;28;20051;-63
2022/05/07 03:50:32;;;;;;;5.50;2.60;;;8.30;99.90;;;;;;5056664;28;20194;-63
2022/05/07 03:55:42;;;;;;;3.13;2.20;;;8.30;99.90;;;;;;5073818;28;20111;-63
2022/05/07 03:58:15;;;;;;;4.72;3.28;;;8.20;99.90;;;;;;5055783;28;20108;-63
2022/05/07 04:00:42;;;;;;;4.03;2.20;;;8.40;99.90;;;;;;5055772;28;20024;-63
2022/05/07 04:03:08;;;;;;;3.88;2.38;;;8.40;99.90;;;;;;5073523;28;20020;-63
2022/05/07 04:05:34;;;;;;;2.45;1.98;;;8.40;99.90;;;;;;5055697;28;20466;-63
2022/05/07 04:08:00;;;;;;;6.80;2.60;;;8.40;99.90;;;;;;5073537;28;20027;-63
2022/05/07 04:10:25;;;;;;;4.10;2.45;;;8.50;99.90;;;;;;5073408;28;20074;-62
2022/05/07 04:12:51;;;;;;;4.05;2.67;;;8.60;99.90;;;;;;5055543;28;20016;-63
2022/05/07 04:15:18;;;;;;;3.83;2.50;;;8.60;99.90;;;;;;5073382;28;20101;-63
2022/05/07 04:17:43;;;;;;;11.10;2.75;;;8.70;99.90;;;;;;5073237;28;20482;-63
2022/05/07 04:20:09;;;;;;;3.25;2.38;;;8.80;99.90;;;;;;5073219;28;20020;-63
2022/05/07 04:22:35;;;;;;;5.20;2.33;;;8.80;99.90;;;;;;5073273;28;20146;-63
2022/05/07 04:25:02;;;;;;;3.00;2.05;;;9.00;99.90;;;;;;5055221;28;20058;-63
2022/05/07 04:27:28;;;;;;;3.30;2.10;;;9.10;99.90;;;;;;5055676;28;20049;-63
2022/05/07 04:29:53;;;;;;;5.22;2.38;;;9.40;99.90;;;;;;5055135;28;20090;-63
2022/05/07 04:32:19;;;;;;;3.50;2.47;;;9.60;99.90;;;;;;5056397;28;20024;-63
2022/05/07 04:34:45;;;;;;;6.55;3.05;;;9.70;99.90;;;;;;5055866;28;20021;-63
2022/05/07 04:37:10;;;;;;;3.38;2.38;;;9.90;99.90;;;;;;5073530;28;20033;-63
2022/05/07 04:39:36;;;;;;;5.40;2.28;;;10.00;99.90;;;;;;5055342;28;20032;-63
2022/05/07 04:42:02;;;;;;;5.18;1.88;;;10.30;99.90;;;;;;5055530;28;20066;-63
2022/05/07 04:44:28;;;;;;;4.18;2.70;;;10.50;99.90;;;;;;5073407;28;20027;-63
2022/05/07 04:46:53;;;;;;;6.60;2.83;;;10.80;99.90;;;;;;5055920;28;20029;-63
2022/05/07 04:49:19;;;;;;;2.42;1.90;;;11.10;99.90;;;;;;5055445;28;20025;-63
2022/05/07 04:51:47;;;;;;;3.80;2.10;;;11.40;99.90;;;;;;5055400;28;20058;-63
2022/05/07 04:54:13;;;;;;;3.35;2.40;;;11.60;99.90;;;;;;5055712;28;20067;-63
2022/05/07 04:56:39;;;;;;;3.00;2.05;;;12.00;99.90;;;;;;5073225;28;20056;-63
2022/05/07 04:59:04;;;;;;;2.47;1.92;;;12.30;99.90;;;;;;5073108;28;20021;-63
2022/05/07 05:01:30;;;;;;;5.03;2.17;;;12.50;99.90;;;;;;5073321;28;20093;-63
2022/05/07 05:03:56;;;;;;;2.75;2.40;;;12.80;99.90;;;;;;5055160;28;20017;-63
2022/05/07 05:06:21;;;;;;;4.22;2.33;;;13.10;99.90;;;;;;5073227;28;20081;-63
2022/05/07 05:08:47;;;;;;;2.70;2.13;;;13.40;99.90;;;;;;5055659;28;20032;-63
2022/05/07 05:11:13;;;;;;;3.70;2.10;;;13.80;99.90;;;;;;5073116;28;20403;-63
2022/05/07 05:13:38;;;;;;;6.68;2.30;;;14.10;99.90;;;;;;5055148;28;20028;-63
2022/05/07 05:16:04;;;;;;;2.45;2.00;;;14.40;99.90;;;;;;5073002;28;20139;-63
2022/05/07 05:18:30;;;;;;;4.97;2.08;;;14.70;99.90;;;;;;5055015;28;20028;-63
2022/05/07 05:20:55;;;;;;;3.88;2.53;;;15.00;99.90;;;;;;5073048;28;20017;-63
2022/05/07 05:23:22;;;;;;;4.18;2.88;;;15.40;99.90;;;;;;5072999;28;20090;-63
2022/05/07 05:25:48;;;;;;;5.18;2.78;;;15.60;99.90;;;;;;5073061;28;20017;-63
2022/05/07 05:28:14;;;;;;;5.55;2.75;;;16.00;99.90;;;;;;5054949;28;20074;-63
2022/05/07 05:30:39;;;;;;;4.68;2.50;;;16.20;99.90;;;;;;5055907;28;20024;-63
2022/05/07 05:33:05;;;;;;;4.18;2.42;;;16.50;99.90;;;;;;5054949;28;20492;-63
2022/05/07 05:35:31;;;;;;;5.40;2.72;;;17.00;99.90;;;;;;5072839;28;20017;-64
2022/05/07 05:37:56;;;;;;;4.38;2.72;;;17.40;99.90;;;;;;5056237;28;20399;-64
2022/05/07 05:40:22;;;;;;;4.45;2.60;;;17.60;99.90;;;;;;5060883;28;20119;-64
2022/05/07 05:42:47;;;;;;;6.80;2.35;;;18.00;99.90;;;;;;5059735;28;20029;-64
2022/05/07 05:45:13;;;;;;;4.75;3.00;;;18.30;99.90;;;;;;5076682;28;20032;-64
2022/05/07 05:47:39;;;;;;;5.95;3.72;;;18.80;99.90;;;;;;5058732;28;20016;-64
2022/05/07 05:50:05;;;;;;;4.30;3.00;;;19.30;99.90;;;;;;5076698;28;20534;-64
2022/05/07 05:52:32;;;;;;;5.03;3.00;;;19.60;99.90;;;;;;5059119;28;20025;-64
2022/05/07 05:54:58;;;;;;;5.57;3.58;;;19.90;99.90;;;;;;5076547;28;20094;-64
2022/05/07 05:57:23;;;;;;;3.88;3.08;;;19.90;99.90;;;;;;5076722;28;20062;-64
2022/05/07 05:59:49;;;;;;;4.43;3.00;;;20.00;99.90;;;;;;5076361;28;20023;-64
2022/05/07 06:02:17;;;;;;;6.47;3.10;;;19.90;99.90;;;;;;5058804;28;20021;-64
2022/05/07 06:04:43;;;;;;;2.55;2.10;;;20.40;99.90;;;;;;5058375;28;20044;-64
2022/05/07 06:07:09;;;;;;;3.78;2.45;;;21.10;99.90;;;;;;5058462;28;20027;-64
2022/05/07 06:09:35;;;;;;;3.88;3.00;;;21.90;99.90;;;;;;5076218;28;20021;-64
2022/05/07 06:12:00;;;;;;;5.60;3.17;;;22.30;99.90;;;;;;5076117;28;20367;-64
2022/05/07 06:14:26;;;;;;;5.45;3.10;;;22.70;99.90;;;;;;5059221;28;20036;-64
2022/05/07 06:16:52;;;;;;;3.22;2.58;;;22.90;99.90;;;;;;5058725;28;20120;-64
2022/05/07 06:19:17;;;;;;;3.15;2.45;;;23.10;99.90;;;;;;5076213;28;20020;-64
2022/05/07 06:21:43;;;;;;;4.25;2.40;;;23.70;98.70;;;;;;5058494;28;20044;-64
2022/05/07 06:29:36;;;;;;;5.35;2.35;;;24.20;94.70;;;;;;5075844;28;20047;-64
2022/05/07 06:32:02;;;;;;;3.75;2.30;;;24.50;94.50;;;;;;5075813;28;20479;-64
2022/05/07 06:34:28;;;;;;;6.32;2.20;;;24.20;94.30;;;;;;5057866;28;20044;-64
2022/05/07 06:36:54;;;;;;;4.65;2.83;;;24.70;94.70;;;;;;5058022;28;20082;-64
2022/05/07 06:39:20;;;;;;;4.07;2.95;;;25.40;92.10;;;;;;5075664;28;20509;-64
2022/05/07 06:41:48;;;;;;;3.47;2.67;;;25.70;90.70;;;;;;5075699;28;20021;-64
2022/05/07 06:44:13;;;;;;;4.20;2.40;;;26.10;90.40;;;;;;5057565;28;20052;-64
2022/05/07 06:46:39;;;;;;;4.78;2.83;;;26.20;88.20;;;;;;5058799;28;20059;-64
2022/05/07 06:49:05;;;;;;;4.40;3.33;;;26.40;85.50;;;;;;5058255;28;20024;-64
2022/05/07 06:51:32;;;;;;;4.13;2.55;;;26.70;86.20;;;;;;5057647;28;20020;-64
2022/05/07 06:53:57;;;;;;;5.57;3.28;;;26.70;82.90;;;;;;5057440;28;20040;-64
2022/05/07 06:56:23;;;;;;;3.08;2.55;;;26.90;81.90;;;;;;5057698;28;20036;-64
2022/05/07 06:58:49;;;;;;;9.07;3.17;;;26.30;84.70;;;;;;5075464;28;20025;-64
2022/05/07 07:01:15;;;;;;;6.53;2.85;;;26.70;83.40;;;;;;5075472;28;20021;-64
2022/05/07 07:03:40;;;;;;;4.13;2.88;;;27.00;81.40;;;;;;5057410;28;20025;-64
2022/05/07 07:06:06;;;;;;;6.57;3.17;;;28.00;81.60;;;;;;5057234;28;20074;-64
2022/05/07 07:08:32;;;;;;;4.25;2.97;;;28.90;76.90;;;;;;5075080;28;20107;-64
2022/05/07 07:10:59;;;;;;;6.53;3.17;;;29.30;75.90;;;;;;5057195;28;20038;-64
2022/05/07 07:13:24;;;;;;;6.75;3.45;;;29.70;73.40;;;;;;5057435;28;20024;-64
2022/05/07 07:15:50;;;;;;;4.18;3.20;;;29.80;73.00;;;;;;5057386;28;20032;-64
2022/05/07 07:18:16;;;;;;;3.95;2.42;;;30.20;72.30;;;;;;5057237;28;20055;-64
2022/05/07 07:20:43;;;;;;;4.28;2.50;;;30.60;70.10;;;;;;5057017;28;20074;-64
2022/05/07 07:23:12;;;;;;;3.83;3.22;;;30.90;70.40;;;;;;5056938;28;20111;-64
2022/05/07 07:25:40;;;;;;;9.20;3.13;;;30.60;67.90;;;;;;5056827;28;20020;-64
2022/05/07 07:28:07;;;;;;;6.35;3.75;;;30.50;66.30;;;;;;5056831;28;20490;-66
2022/05/07 07:30:32;;;;;;;7.82;3.15;;;31.20;66.70;;;;;;5056677;28;20024;-65
2022/05/07 07:32:59;;;;;;;5.07;3.28;;;30.10;67.30;;;;;;5074931;28;20020;-65
2022/05/07 07:35:25;;;;;;;12.43;3.10;;;30.60;67.80;;;;;;5074754;28;20028;-65
2022/05/07 07:37:51;;;;;;;3.67;2.55;;;31.50;67.20;;;;;;5074619;28;20033;-65
2022/05/07 07:40:16;;;;;;;2.35;2.15;;;31.90;66.80;;;;;;5074769;28;20137;-65
2022/05/07 07:42:42;;;;;;;2.97;2.17;;;32.80;63.50;;;;;;5056682;28;20498;-65
2022/05/07 07:48:07;;;;;;;5.43;2.92;;;34.40;57.70;;;;;;5075217;28;20044;-65
2022/05/07 07:50:34;;;;;;;4.78;2.38;;;34.40;57.70;;;;;;5056873;28;20024;-65
2022/05/07 07:53:06;;;;;;;3.20;2.03;;;34.70;57.50;;;;;;5056617;28;20020;-65
2022/05/07 07:55:32;;;;;;;3.20;2.30;;;34.90;56.30;;;;;;5074593;28;20020;-65
2022/05/07 07:58:00;;;;;;;6.25;2.55;;;35.00;54.40;;;;;;5056262;28;20028;-65
2022/05/07 08:00:27;;;;;;;5.30;2.67;;;34.40;54.30;;;;;;5055602;28;20017;-65
2022/05/07 08:02:58;;;;;;;3.65;2.63;;;34.70;56.30;;;;;;5057029;28;20066;-65
2022/05/07 08:05:26;;;;;;;3.70;2.53;;;35.10;54.30;;;;;;5056121;28;20039;-65
2022/05/07 08:13:22;;;;;;;3.25;2.38;;;35.40;52.10;;;;;;5074172;28;20034;-65
2022/05/07 08:15:48;;;;;;;4.13;2.20;;;35.90;51.40;;;;;;5073770;28;20024;-65
2022/05/07 08:18:14;;;;;;;3.03;2.42;;;35.50;51.40;;;;;;5055806;28;20048;-65
2022/05/07 08:20:43;;;;;;;6.32;2.50;;;33.90;51.40;;;;;;5055857;28;20016;-65
2022/05/07 08:23:10;;;;;;;6.35;2.20;;;32.90;52.40;;;;;;5073670;28;20051;-65
2022/05/07 08:25:37;;;;;;;7.50;3.17;;;33.10;53.50;;;;;;5056064;28;20020;-65
2022/05/07 08:28:03;;;;;;;3.42;2.10;;;34.40;51.40;;;;;;5056407;28;20028;-65
2022/05/07 08:30:29;;;;;;;5.82;2.75;;;34.10;51.40;;;;;;5055772;28;20394;-65
2022/05/07 08:32:55;;;;;;;6.70;2.50;;;34.10;53.30;;;;;;5073898;28;20466;-65
2022/05/07 08:35:21;;;;;;;3.67;2.35;;;35.20;53.40;;;;;;5055889;28;20029;-65
2022/05/07 08:37:47;;;;;;;3.63;2.25;;;36.30;52.20;;;;;;5055656;28;20028;-65
2022/05/07 08:40:16;;;;;;;9.65;2.13;;;37.00;50.20;;;;;;5055298;28;20036;-65
2022/05/07 08:42:43;;;;;;;4.05;2.13;;;37.00;50.10;;;;;;5074033;28;20463;-65
2022/05/07 08:45:09;;;;;;;2.70;1.92;;;37.80;49.50;;;;;;5055579;28;20031;-65
2022/05/07 08:47:35;;;;;;;3.65;2.22;;;37.50;48.60;;;;;;5055682;28;20490;-65
2022/05/07 08:50:01;;;;;;;5.53;2.25;;;38.40;48.40;;;;;;5073573;28;20024;-65
2022/05/07 08:52:30;;;;;;;1.77;1.67;;;38.90;49.40;;;;;;5073362;28;20475;-65
2022/05/07 08:54:57;;;;;;;2.57;2.37;;;38.60;49.30;;;;;;5055827;28;20028;-65
2022/05/07 08:57:24;;;;;;;2.78;2.42;;;38.70;47.80;;;;;;5073316;28;20027;-65
2022/05/07 08:59:53;;;;;;;4.70;2.70;;;37.80;47.10;;;;;;5055932;28;20031;-65
2022/05/07 09:02:20;;;;;;;6.65;2.45;;;37.20;48.70;;;;;;5055637;28;20033;-65
2022/05/07 09:04:56;;;;;;;4.00;2.53;;;36.00;48.20;;;;;;5073193;28;20021;-64
2022/05/07 09:07:23;;;;;;;3.65;2.35;;;35.20;49.70;;;;;;5055216;28;20134;-64
2022/05/07 09:09:50;;;;;;;5.07;2.03;;;35.40;50.10;;;;;;5055426;28;20080;-64
2022/05/07 09:12:29;;;;;;;9.50;1.75;;;36.80;48.60;;;;;;5055287;28;20035;-64
2022/05/07 09:15:04;;;;;;;2.67;2.08;;;37.50;48.60;;;;;;5059328;28;20029;-64
2022/05/07 09:17:30;;;;;;;2.63;1.65;;;37.80;47.90;;;;;;5059514;28;20021;-64
2022/05/07 09:19:55;;;;;;;2.88;2.13;;;38.90;47.10;;;;;;5059202;28;20020;-64
2022/05/07 09:22:21;;;;;;;4.65;2.67;;;39.60;44.80;;;;;;5059147;28;20459;-64
2022/05/07 09:24:55;;;;;;;4.60;2.05;;;39.60;45.60;;;;;;5059216;28;20021;-65
2022/05/07 09:27:22;;;;;;;2.67;1.58;;;39.10;45.50;;;;;;5059146;28;20086;-64
2022/05/07 09:29:59;;;;;;;1.98;1.60;;;39.50;44.10;;;;;;5076957;28;20021;-64
2022/05/07 09:32:37;;;;;;;4.47;1.92;;;39.80;43.50;;;;;;5059448;28;20035;-64
2022/05/07 09:38:04;;;;;;;4.45;1.88;;;40.30;43.20;;;;;;5077270;28;20074;-64
2022/05/07 09:40:32;;;;;;;4.20;1.85;;;40.30;41.30;;;;;;5058812;28;20033;-64
2022/05/07 09:42:58;;;;;;;3.55;1.80;;;39.60;43.00;;;;;;5058896;28;20027;-64
2022/05/07 09:45:27;;;;;;;3.30;1.52;;;39.90;43.40;;;;;;5059145;28;20109;-64
2022/05/07 09:48:00;;;;;;;2.40;1.90;;;40.10;44.30;;;;;;5058830;28;20024;-64
2022/05/07 09:58:38;;;;;;;3.40;1.63;;;37.40;44.10;;;;;;5076796;28;20091;-63
2022/05/07 10:01:22;;;;;;;11.68;1.95;;;37.80;44.80;;;;;;5058430;28;20056;-61
2022/05/07 10:04:04;;;;;;;3.17;1.52;;;38.30;44.70;;;;;;5059320;28;20186;-63
2022/05/07 10:06:41;;;;;;;4.45;1.80;;;38.60;45.40;;;;;;5058464;28;20086;-63
2022/05/07 10:09:30;;;;;;;5.07;2.08;;;38.60;44.40;;;;;;5058400;28;20020;-66
2022/05/07 10:11:57;;;;;;;4.53;1.75;;;38.20;44.70;;;;;;5076282;28;20104;-63
2022/05/07 10:14:31;;;;;;;5.20;1.65;;;37.80;44.30;;;;;;5076230;28;20025;-65
2022/05/07 10:17:13;;;;;;;2.78;1.83;;;38.00;45.70;;;;;;5076176;28;20444;-66
2022/05/07 10:19:44;;;;;;;4.57;2.03;;;37.50;44.00;;;;;;5075897;28;20437;-66
2022/05/07 10:22:16;;;;;;;2.80;1.70;;;37.60;44.20;;;;;;5058404;28;20066;-66
2022/05/07 10:24:43;;;;;;;3.92;1.83;;;37.60;43.20;;;;;;5057785;28;20021;-66
2022/05/07 10:27:25;;;;;;;1.85;1.40;;;36.70;44.80;;;;;;5058491;28;20065;-66
2022/05/07 10:29:50;;;;;;;6.22;1.70;;;35.80;46.00;;;;;;5058057;28;20025;-64
2022/05/07 10:32:19;;;;;;;3.65;1.70;;;35.20;45.40;;;;;;5076162;28;20151;-65
2022/05/07 10:34:52;;;;;;;3.38;1.40;;;34.80;46.30;;;;;;5058153;28;20029;-65
2022/05/07 10:37:18;;;;;;;2.40;1.80;;;34.30;47.10;;;;;;5058174;28;20031;-65
2022/05/07 10:39:52;;;;;;;4.57;2.20;;;33.90;48.60;;;;;;5057994;28;20036;-65
2022/05/07 10:42:19;;;;;;;3.78;1.85;;;32.60;46.60;;;;;;5058214;28;20123;-65
2022/05/07 10:44:44;;;;;;;3.35;1.50;;;31.50;48.00;;;;;;5075624;28;20053;-65
2022/05/07 10:47:18;;;;;;;4.85;2.08;;;31.10;49.50;;;;;;5075908;28;20123;-65
2022/05/07 10:50:07;;;;;;;3.08;1.90;;;29.80;49.80;;;;;;5057511;28;20430;-65
2022/05/07 10:52:34;;;;;;;1.88;1.50;;;29.60;50.40;;;;;;5075826;28;20020;-65
2022/05/07 10:55:16;;;;;;;5.93;1.70;;;29.20;50.70;;;;;;5075713;28;20028;-65
2022/05/07 10:57:47;;;;;;;4.03;1.75;;;29.30;52.60;;;;;;5075351;28;20017;-65
2022/05/07 11:00:20;;;;;;;2.25;1.48;;;29.20;53.30;;;;;;5075307;28;20044;-65
2022/05/07 11:02:48;;;;;;;3.50;1.73;;;29.10;52.70;;;;;;5057712;28;20501;-65
2022/05/07 11:05:15;;;;;;;2.17;1.60;;;29.00;53.50;;;;;;5075427;28;20033;-65
2022/05/07 11:07:42;;;;;;;5.15;1.83;;;28.80;52.90;;;;;;5075178;28;20490;-65
2022/05/07 11:10:09;;;;;;;6.15;1.42;;;28.70;53.90;;;;;;5075111;28;20541;-65
2022/05/07 11:12:35;;;;;;;3.60;1.90;;;28.50;54.70;;;;;;5057493;28;20546;-65
2022/05/07 11:15:03;;;;;;;4.72;1.98;;;28.30;54.30;;;;;;5074978;28;20033;-64
2022/05/07 11:17:33;;;;;;;2.95;2.10;;;28.20;53.60;;;;;;5057286;28;20028;-65
2022/05/07 11:19:59;;;;;;;3.47;2.05;;;28.20;54.00;;;;;;5057833;28;20017;-65
2022/05/07 11:26:33;;;;;;;4.15;1.70;;;28.30;53.90;;;;;;5075057;28;20047;-65
2022/05/07 11:28:59;;;;;;;2.55;1.95;;;28.30;55.00;;;;;;5036687;28;20044;-65
2022/05/07 11:31:34;;;;;;;1.63;1.42;;;28.00;54.40;;;;;;5036851;28;20487;-65
2022/05/07 11:34:13;;;;;;;4.95;1.95;;;27.90;55.40;;;;;;5054649;28;20047;-65
2022/05/07 11:36:39;;;;;;;4.47;1.65;;;27.90;53.60;;;;;;5035671;28;20025;-65
2022/05/07 11:39:07;;;;;;;3.97;2.33;;;28.00;54.50;;;;;;5036456;28;20040;-65
2022/05/07 11:41:35;;;;;;;2.88;1.67;;;27.90;53.60;;;;;;5054486;28;20083;-65
2022/05/07 11:46:56;;;;;;;9.38;2.63;;;27.80;52.90;;;;;;5054983;28;20123;-65
2022/05/07 11:49:28;;;;;;;3.53;1.60;;;26.80;52.90;;;;;;5036746;28;20029;-65
2022/05/07 11:52:08;;;;;;;4.03;1.77;;;26.60;57.30;;;;;;5055568;28;20031;-66
2022/05/07 11:54:34;;;;;;;2.45;1.60;;;26.70;56.40;;;;;;5056010;28;20025;-65
2022/05/07 11:57:00;;;;;;;2.20;1.40;;;26.80;57.40;;;;;;5039534;28;20095;-66
2022/05/07 11:59:26;;;;;;;6.43;2.15;;;27.10;57.00;;;;;;5057291;28;20021;-62
2022/05/07 12:01:52;;;;;;;2.40;1.88;;;26.90;55.60;;;;;;5036852;28;20399;-62
2022/05/07 12:04:17;;;;;;;3.15;2.08;;;27.10;56.30;;;;;;5047492;28;20028;-62
2022/05/07 12:06:56;;;;;;;2.72;1.75;;;27.20;53.90;;;;;;5056126;28;20027;-62
2022/05/07 12:09:22;;;;;;;3.47;1.95;;;27.40;55.10;;;;;;5056363;28;20028;-62
2022/05/07 12:11:49;;;;;;;2.90;1.80;;;27.00;55.80;;;;;;5073874;28;20031;-62
2022/05/07 12:14:14;;;;;;;2.15;1.77;;;27.00;56.80;;;;;;5056777;28;20487;-62
2022/05/07 12:19:34;;;;;;;3.92;1.92;;;27.20;55.80;;;;;;5074366;28;20027;-62
2022/05/07 12:30:13;;;;;;;2.47;2.13;;;26.80;56.80;;;;;;5073568;28;20062;-62
2022/05/07 12:32:43;;;;;;;3.72;2.53;;;26.70;55.10;;;;;;5056280;28;20032;-62
2022/05/07 12:35:09;;;;;;;2.70;1.92;;;26.50;54.70;;;;;;5055634;28;20048;-61
2022/05/07 12:37:37;;;;;;;4.47;1.80;;;26.40;58.00;;;;;;5056412;28;20029;-62
2022/05/07 12:40:03;;;;;;;3.53;2.72;;;26.30;57.60;;;;;;5055575;28;20036;-62
2022/05/07 12:42:29;;;;;;;2.95;1.85;;;26.40;56.90;;;;;;5073618;28;20020;-62
2022/05/07 12:44:55;;;;;;;6.00;2.63;;;26.40;59.00;;;;;;5073701;28;20017;-62
2022/05/07 12:47:21;;;;;;;4.90;2.58;;;26.20;56.20;;;;;;5040712;28;20044;-63
2022/05/07 12:49:46;;;;;;;4.00;2.35;;;25.90;56.20;;;;;;5055191;28;20028;-63
2022/05/07 12:52:13;;;;;;;5.35;3.03;;;25.60;58.60;;;;;;5056918;28;20024;-63
2022/05/07 12:54:39;;;;;;;5.63;3.03;;;25.00;55.90;;;;;;5074251;28;20020;-63
2022/05/07 12:57:05;;;;;;;5.63;2.45;;;24.70;57.20;;;;;;5060074;28;20024;-65
2022/05/07 12:59:31;;;;;;;6.65;2.78;;;24.40;57.80;;;;;;5049750;28;20032;-65
2022/05/07 13:02:03;;;;;;;4.35;2.30;;;24.20;57.60;;;;;;5058141;28;20025;-65
2022/05/07 13:04:29;;;;;;;3.95;2.30;;;24.50;59.80;;;;;;5038104;28;20021;-62
2022/05/07 13:06:55;;;;;;;5.13;2.50;;;24.80;59.30;;;;;;5038349;28;20025;-62
2022/05/07 13:09:20;;;;;;;3.70;2.63;;;24.90;59.40;;;;;;5055665;28;20522;-65
2022/05/07 13:11:46;;;;;;;6.18;2.47;;;25.00;58.40;;;;;;5037758;28;20040;-65
2022/05/07 13:14:12;;;;;;;4.05;2.08;;;24.90;57.50;;;;;;5055539;28;20471;-65
2022/05/07 13:16:38;;;;;;;4.20;2.58;;;25.10;59.80;;;;;;5037634;28;20029;-65
2022/05/07 13:19:03;;;;;;;5.53;2.30;;;25.00;57.60;;;;;;5038514;28;20017;-65
2022/05/07 13:21:29;;;;;;;3.10;2.35;;;24.90;57.70;;;;;;5035830;28;20036;-65
2022/05/07 13:23:55;;;;;;;3.75;2.90;;;24.50;57.20;;;;;;5035311;28;20163;-65
2022/05/07 13:26:20;;;;;;;5.18;2.53;;;24.30;57.60;;;;;;5053062;28;20033;-65
2022/05/07 13:28:46;;;;;;;2.78;2.17;;;24.00;58.50;;;;;;5052973;28;20021;-65
2022/05/07 13:31:11;;;;;;;5.32;2.35;;;24.30;61.20;;;;;;5052905;28;20501;-65
2022/05/07 13:33:37;;;;;;;4.05;2.10;;;24.50;59.90;;;;;;5035238;28;20028;-65
2022/05/07 13:36:03;;;;;;;6.15;2.15;;;24.50;60.80;;;;;;5062043;28;20029;-65
2022/05/07 13:38:29;;;;;;;4.82;2.42;;;24.70;59.20;;;;;;5055242;28;20028;-65
2022/05/07 13:40:55;;;;;;;4.32;2.50;;;24.60;57.60;;;;;;5055165;28;20028;-65